createdAt,value
2023-01-04T00:00:00.314Z,0.93
2023-01-04T00:02:28.196Z,1.05
2023-01-04T00:04:54.962Z,0.93
2023-01-04T00:07:23.158Z,0.82
2023-01-04T00:09:50.051Z,0.73
2023-01-04T00:12:16.800Z,0.82
2023-01-04T00:14:43.498Z,0.82
2023-01-04T00:17:10.171Z,1.20
2023-01-04T00:19:36.952Z,0.93
2023-01-04T00:22:03.837Z,1.83
2023-01-04T00:24:32.148Z,0.95
2023-01-04T00:26:59.011Z,1.02
2023-01-04T00:29:25.836Z,0.82
2023-01-04T00:31:52.542Z,0.73
2023-01-04T00:34:19.681Z,1.10
2023-01-04T00:36:46.825Z,0.73
2023-01-04T00:39:15.310Z,0.90
2023-01-04T00:42:02.014Z,0.98
2023-01-04T00:44:29.532Z,0.93
2023-01-04T00:46:56.432Z,1.33
2023-01-04T00:49:23.784Z,0.73
2023-01-04T00:51:50.937Z,0.63
2023-01-04T00:54:18.119Z,0.90
2023-01-04T00:56:48.316Z,0.65
2023-01-04T00:59:16.998Z,0.52
2023-01-04T01:01:44.744Z,1.02
2023-01-04T01:04:13.318Z,0.70
2023-01-04T01:06:40.649Z,0.52
2023-01-04T01:09:08.055Z,0.43
2023-01-04T01:11:36.733Z,0.77
2023-01-04T01:14:05.175Z,0.68
2023-01-04T01:16:54.531Z,0.47
2023-01-04T01:19:18.612Z,0.65
2023-01-04T01:21:45.280Z,0.40
2023-01-04T01:24:16.942Z,0.70
2023-01-04T01:26:43.813Z,0.50
2023-01-04T01:29:13.154Z,0.30
2023-01-04T01:31:40.862Z,0.32
2023-01-04T01:34:07.955Z,0.47
2023-01-04T01:36:35.107Z,0.55
2023-01-04T01:39:01.933Z,0.35
2023-01-04T01:41:30.321Z,0.40
2023-01-04T01:43:59.536Z,0.32
2023-01-04T01:46:32.274Z,0.80
2023-01-04T01:49:03.510Z,0.68
2023-01-04T01:51:31.978Z,0.70
2023-01-04T01:54:04.511Z,0.38
2023-01-04T01:56:36.565Z,0.60
2023-01-04T01:59:03.815Z,0.32
2023-01-04T02:01:33.306Z,0.63
2023-01-04T02:04:00.541Z,0.43
2023-01-04T02:06:31.799Z,0.22
2023-01-04T02:09:00.052Z,0.65
2023-01-04T02:11:26.912Z,0.77
2023-01-04T02:14:13.145Z,0.32
2023-01-04T02:17:05.407Z,0.70
2023-01-04T02:19:56.810Z,1.00
2023-01-04T02:22:59.756Z,0.68
2023-01-04T02:25:45.436Z,1.00
2023-01-04T02:28:22.974Z,0.75
2023-01-04T02:31:24.953Z,0.45
2023-01-04T02:33:57.947Z,0.35
2023-01-04T02:36:33.809Z,0.43
2023-01-04T02:39:10.375Z,0.63
2023-01-04T02:41:45.145Z,0.30
2023-01-04T02:44:34.465Z,0.60
2023-01-04T02:47:07.554Z,0.47
2023-01-04T02:49:52.924Z,0.43
2023-01-04T02:52:26.006Z,0.52
2023-01-04T02:54:55.936Z,0.43
2023-01-04T02:57:30.856Z,0.50
2023-01-04T03:00:19.004Z,0.47
2023-01-04T03:03:23.827Z,0.52
2023-01-04T03:06:17.107Z,0.75
2023-01-04T03:08:54.676Z,0.50
2023-01-04T03:11:39.927Z,0.30
2023-01-04T03:14:31.515Z,0.38
2023-01-04T03:17:01.934Z,0.50
2023-01-04T03:19:50.518Z,0.40
2023-01-04T03:22:38.897Z,0.32
2023-01-04T03:25:27.900Z,0.43
2023-01-04T03:28:15.920Z,0.47
2023-01-04T03:31:08.197Z,0.43
2023-01-04T03:33:53.490Z,0.50
2023-01-04T03:36:29.664Z,0.80
2023-01-04T03:42:06.703Z,0.55
2023-01-04T03:45:05.848Z,0.60
2023-01-04T03:48:01.789Z,0.45
2023-01-04T03:50:34.851Z,0.47
2023-01-04T03:53:04.157Z,0.43
2023-01-04T03:55:31.724Z,0.32
2023-01-04T03:57:59.773Z,0.32
2023-01-04T04:00:27.750Z,0.52
2023-01-04T04:03:07.110Z,0.50
2023-01-04T04:05:54.788Z,0.32
2023-01-04T04:08:29.088Z,0.43
2023-01-04T04:10:58.214Z,0.57
2023-01-04T04:13:25.775Z,0.47
2023-01-04T04:15:53.430Z,0.43
2023-01-04T04:18:20.286Z,0.82
2023-01-04T04:20:47.791Z,0.32
2023-01-04T04:23:14.773Z,0.30
2023-01-04T04:25:43.168Z,0.60
2023-01-04T04:28:10.079Z,0.50
2023-01-04T04:30:37.002Z,0.43
2023-01-04T04:33:05.163Z,0.60
2023-01-04T04:35:31.855Z,0.50
2023-01-04T04:37:58.574Z,0.60
2023-01-04T04:40:44.036Z,0.60
2023-01-04T04:43:12.156Z,0.82
2023-01-04T04:45:38.849Z,0.68
2023-01-04T04:48:06.058Z,0.52
2023-01-04T04:50:33.522Z,0.52
2023-01-04T04:53:00.543Z,0.43
2023-01-04T04:55:27.621Z,0.52
2023-01-04T04:57:54.475Z,0.70
2023-01-04T05:00:23.130Z,0.75
2023-01-04T05:02:50.059Z,0.40
2023-01-04T05:05:16.980Z,0.52
2023-01-04T05:07:43.673Z,0.52
2023-01-04T05:10:11.261Z,0.55
2023-01-04T05:12:59.200Z,0.63
2023-01-04T05:15:29.622Z,1.02
2023-01-04T05:17:58.286Z,0.57
2023-01-04T05:20:25.093Z,0.70
2023-01-04T05:22:52.181Z,0.50
2023-01-04T05:25:19.379Z,0.70
2023-01-04T05:27:46.728Z,0.75
2023-01-04T05:30:34.614Z,0.32
2023-01-04T05:33:04.445Z,0.43
2023-01-04T05:35:31.932Z,0.32
2023-01-04T05:37:59.103Z,0.50
2023-01-04T05:40:26.041Z,0.43
2023-01-04T05:42:52.948Z,0.40
2023-01-04T05:45:21.064Z,0.57
2023-01-04T05:47:50.075Z,0.50
2023-01-04T05:50:19.423Z,0.93
2023-01-04T05:52:46.768Z,1.05
2023-01-04T05:55:14.216Z,1.17
2023-01-04T05:57:40.987Z,1.05
2023-01-04T06:00:10.126Z,1.13
2023-01-04T06:02:41.549Z,1.10
2023-01-04T06:05:10.663Z,0.95
2023-01-04T06:07:40.245Z,0.88
2023-01-04T06:10:08.469Z,1.77
2023-01-04T06:12:35.348Z,1.25
2023-01-04T06:15:02.246Z,0.95
2023-01-04T06:17:28.909Z,2.03
2023-01-04T06:19:55.673Z,1.75
2023-01-04T06:22:22.402Z,1.90
2023-01-04T06:24:50.566Z,1.83
2023-01-04T06:27:17.242Z,0.82
2023-01-04T06:29:43.933Z,1.85
2023-01-04T06:32:11.000Z,2.05
2023-01-04T06:34:38.679Z,3.17
2023-01-04T06:37:06.055Z,2.63
2023-01-04T06:39:33.086Z,2.88
2023-01-04T06:42:06.179Z,2.33
2023-01-04T06:44:34.059Z,2.40
2023-01-04T06:47:01.020Z,3.05
2023-01-04T06:49:27.741Z,2.80
2023-01-04T06:51:54.417Z,1.90
2023-01-04T06:54:21.575Z,1.45
2023-01-04T06:56:48.351Z,1.92
2023-01-04T06:59:16.438Z,2.92
2023-01-04T07:01:43.275Z,1.83
2023-01-04T07:04:10.418Z,2.63
2023-01-04T07:06:37.150Z,2.45
2023-01-04T07:09:04.840Z,1.50
2023-01-04T07:11:31.601Z,2.03
2023-01-04T07:13:58.331Z,1.63
2023-01-04T07:16:26.751Z,2.03
2023-01-04T07:18:53.767Z,1.45
2023-01-04T07:21:20.578Z,1.63
2023-01-04T07:23:47.712Z,1.55
2023-01-04T07:26:14.452Z,3.10
2023-01-04T07:28:59.913Z,1.83
2023-01-04T07:31:28.076Z,2.28
2023-01-04T07:33:55.063Z,1.17
2023-01-04T07:36:21.807Z,2.65
2023-01-04T07:38:48.816Z,1.92
2023-01-04T07:41:15.752Z,2.35
2023-01-04T07:43:42.779Z,2.55
2023-01-04T07:46:09.528Z,2.33
2023-01-04T07:48:37.642Z,2.28
2023-01-04T07:51:05.075Z,1.58
2023-01-04T07:53:32.784Z,2.08
2023-01-04T07:55:59.948Z,2.58
2023-01-04T07:58:31.419Z,2.13
2023-01-04T08:01:06.540Z,1.52
2023-01-04T08:03:33.346Z,1.85
2023-01-04T08:06:04.988Z,1.98
2023-01-04T08:08:32.137Z,2.38
2023-01-04T08:11:01.664Z,3.38
2023-01-04T08:13:28.605Z,2.58
2023-01-04T08:15:56.249Z,4.15
2023-01-04T08:18:23.373Z,6.68
2023-01-04T08:20:56.557Z,5.60
2023-01-04T08:23:26.504Z,4.72
2023-01-04T08:25:53.527Z,3.88
2023-01-04T08:28:20.255Z,4.00
2023-01-04T08:30:47.124Z,2.78
2023-01-04T08:33:14.241Z,2.53
2023-01-04T08:35:40.971Z,3.00
2023-01-04T08:38:47.326Z,2.67
2023-01-04T08:40:59.744Z,2.17
2023-01-04T08:43:30.597Z,2.92
2023-01-04T08:45:57.317Z,2.55
2023-01-04T08:48:24.855Z,4.20
2023-01-04T08:50:51.667Z,3.03
2023-01-04T08:53:18.397Z,3.92
2023-01-04T08:55:50.188Z,3.67
2023-01-04T08:58:18.977Z,4.30
2023-01-04T09:00:45.922Z,5.45
2023-01-04T09:03:12.859Z,3.70
2023-01-04T09:05:39.875Z,3.15
2023-01-04T09:08:06.855Z,2.42
2023-01-04T09:10:36.362Z,2.22
2023-01-04T09:13:02.988Z,2.92
2023-01-04T09:15:31.525Z,2.63
2023-01-04T09:18:31.101Z,2.92
2023-01-04T09:20:44.914Z,2.72
2023-01-04T09:23:11.736Z,2.10
2023-01-04T09:25:39.747Z,2.55
2023-01-04T09:28:06.443Z,3.05
2023-01-04T09:30:35.286Z,1.50
2023-01-04T09:33:02.009Z,2.35
2023-01-04T09:35:28.835Z,1.85
2023-01-04T09:37:55.512Z,1.95
2023-01-04T09:40:27.588Z,0.82
2023-01-04T09:43:20.148Z,1.23
2023-01-04T09:45:43.198Z,0.70
2023-01-04T09:48:14.421Z,1.08
2023-01-04T09:50:48.465Z,1.05
2023-01-04T09:53:21.504Z,1.10
2023-01-04T09:55:52.348Z,0.80
2023-01-04T09:58:25.806Z,0.93
2023-01-04T10:01:00.834Z,0.68
2023-01-04T10:03:31.528Z,0.75
2023-01-04T10:05:58.498Z,0.57
2023-01-04T10:08:25.287Z,0.38
2023-01-04T10:11:00.661Z,0.98
2023-01-04T10:13:43.978Z,0.32
2023-01-04T10:16:30.479Z,0.60
2023-01-04T10:20:59.884Z,0.70
2023-01-04T10:22:11.491Z,0.52
2023-01-04T10:24:48.947Z,0.55
2023-01-04T10:27:26.401Z,0.47
2023-01-04T10:30:16.440Z,0.50
2023-01-04T10:32:46.364Z,0.45
2023-01-04T10:35:19.594Z,0.77
2023-01-04T10:37:48.818Z,0.57
2023-01-04T10:40:17.519Z,0.45
2023-01-04T10:42:53.160Z,0.50
2023-01-04T10:45:28.538Z,0.25
2023-01-04T10:48:08.699Z,0.28
2023-01-04T10:50:42.245Z,0.82
2023-01-04T10:53:18.371Z,0.35
2023-01-04T10:56:23.709Z,0.50
2023-01-04T10:58:42.985Z,0.43
2023-01-04T11:01:15.936Z,0.52
2023-01-04T11:03:49.086Z,0.73
2023-01-04T11:06:20.463Z,0.52
2023-01-04T11:08:53.392Z,0.47
2023-01-04T11:11:25.424Z,0.68
2023-01-04T11:13:52.520Z,1.73
2023-01-04T11:16:20.033Z,0.73
2023-01-04T11:18:50.464Z,1.27
2023-01-04T11:21:20.943Z,1.52
2023-01-04T11:23:47.644Z,1.55
2023-01-04T11:26:20.083Z,0.95
2023-01-04T11:28:51.587Z,0.95
2023-01-04T11:31:24.760Z,1.17
2023-01-04T11:33:58.088Z,0.73
2023-01-04T11:36:43.399Z,1.13
2023-01-04T11:39:19.312Z,2.70
2023-01-04T11:42:02.362Z,0.75
2023-01-04T11:44:31.202Z,0.82
2023-01-04T11:47:08.947Z,2.08
2023-01-04T11:49:37.755Z,3.30
2023-01-04T11:52:05.517Z,1.25
2023-01-04T11:54:32.313Z,0.73
2023-01-04T11:57:04.623Z,0.88
2023-01-04T11:59:35.601Z,0.60
2023-01-04T12:05:24.547Z,0.40
2023-01-04T12:07:55.508Z,0.40
2023-01-04T12:10:26.635Z,0.43
2023-01-04T12:12:54.354Z,0.52
2023-01-04T12:15:27.499Z,0.45
2023-01-04T12:17:59.564Z,0.45
2023-01-04T12:20:30.203Z,0.52
2023-01-04T12:22:56.982Z,0.50
2023-01-04T12:25:34.376Z,0.65
2023-01-04T12:28:01.731Z,0.50
2023-01-04T12:30:41.910Z,1.88
2023-01-04T12:33:39.560Z,1.23
2023-01-04T12:36:09.782Z,0.45
2023-01-04T12:39:00.491Z,0.50
2023-01-04T12:42:19.263Z,0.68
2023-01-04T12:45:16.909Z,0.65
2023-01-04T12:48:12.301Z,0.95
2023-01-04T12:51:46.900Z,0.52
2023-01-04T12:54:24.060Z,0.77
2023-01-04T12:57:10.671Z,1.30
2023-01-04T12:59:39.208Z,0.73
2023-01-04T13:02:20.721Z,0.75
2023-01-04T13:04:49.087Z,0.73
2023-01-04T13:07:20.889Z,0.68
2023-01-04T13:09:54.922Z,1.92
2023-01-04T13:12:46.396Z,1.17
2023-01-04T13:15:23.147Z,1.20
2023-01-04T13:17:50.241Z,0.57
2023-01-04T13:20:20.853Z,0.65
2023-01-04T13:22:53.209Z,0.43
2023-01-04T13:25:23.829Z,0.47
2023-01-04T13:27:59.326Z,0.47
2023-01-04T13:30:35.590Z,0.40
2023-01-04T13:33:28.323Z,0.50
2023-01-04T13:36:11.751Z,0.52
2023-01-04T13:38:40.688Z,0.63
2023-01-04T13:41:20.690Z,0.80
2023-01-04T13:44:02.841Z,0.98
2023-01-04T13:46:29.765Z,1.13
2023-01-04T13:49:02.063Z,1.25
2023-01-04T13:51:37.127Z,1.50
2023-01-04T13:54:17.113Z,1.25
2023-01-04T13:56:51.449Z,1.13
2023-01-04T13:59:22.333Z,0.85
2023-01-04T14:01:50.369Z,0.65
2023-01-04T14:04:24.712Z,0.80
2023-01-04T14:06:53.887Z,0.88
2023-01-04T14:09:24.347Z,1.98
2023-01-04T14:12:07.852Z,0.82
2023-01-04T14:14:39.831Z,0.50
2023-01-04T14:17:16.605Z,0.35
2023-01-04T14:19:49.765Z,0.60
2023-01-04T14:22:38.452Z,0.90
2023-01-04T14:25:56.739Z,0.70
2023-01-04T14:28:32.565Z,0.22
2023-01-04T14:33:49.210Z,0.43
2023-01-04T14:36:20.536Z,0.55
2023-01-04T14:38:56.175Z,0.32
2023-01-04T14:41:26.527Z,0.30
2023-01-04T14:44:06.409Z,0.43
2023-01-04T14:46:33.276Z,0.40
2023-01-04T14:49:00.317Z,0.73
2023-01-04T14:51:33.186Z,0.40
2023-01-04T14:53:59.919Z,0.40
2023-01-04T14:56:26.841Z,0.50
2023-01-04T14:58:55.344Z,0.20
2023-01-04T15:01:22.758Z,0.30
2023-01-04T15:03:49.723Z,0.43
2023-01-04T15:06:16.780Z,0.25
2023-01-04T15:08:43.794Z,0.30
2023-01-04T15:11:12.633Z,0.30
2023-01-04T15:13:40.040Z,0.50
2023-01-04T15:16:11.887Z,0.20
2023-01-04T15:18:39.411Z,0.22
2023-01-04T15:21:06.911Z,0.40
2023-01-04T15:23:33.668Z,0.55
2023-01-04T15:26:03.126Z,0.40
2023-01-04T15:28:29.918Z,0.32
2023-01-04T15:30:56.822Z,0.30
2023-01-04T15:33:25.136Z,0.30
2023-01-04T15:35:58.702Z,0.30
2023-01-04T15:38:25.888Z,0.50
2023-01-04T15:40:59.992Z,0.20
2023-01-04T15:43:32.602Z,0.20
2023-01-04T15:46:07.514Z,0.32
2023-01-04T15:48:36.807Z,0.35
2023-01-04T15:51:05.188Z,0.50
2023-01-04T15:53:32.182Z,0.30
2023-01-04T15:56:07.664Z,0.60
2023-01-04T15:58:34.725Z,0.20
2023-01-04T16:01:08.790Z,1.02
2023-01-04T16:03:38.147Z,0.70
2023-01-04T16:08:33.084Z,1.90
